Time;durP1;ratioP1;P1;durP2;ratioP2;P2;SDS_P1;SDS_P2;PMS_P1;PMS_P2;Temp;Humidity;BMP_temperature;BMP_pressure;BME280_temperature;BME280_humidity;BME280_pressure;Samples;Min_cycle;Max_cycle;Signal;HPM_P1;HPM_P2
2021/12/22 00:01:48;;;;;;;14.60;11.50;;;-1.80;99.90;;;;;;5041448;28;20199;-86
2021/12/22 00:04:13;;;;;;;14.50;11.77;;;-1.70;99.90;;;;;;5056936;28;20211;-87
2021/12/22 00:06:39;;;;;;;14.23;11.40;;;-1.60;99.90;;;;;;5066254;28;20289;-86
2021/12/22 00:09:06;;;;;;;15.43;11.77;;;-1.40;99.90;;;;;;5068223;28;20289;-87
2021/12/22 00:11:32;;;;;;;21.80;11.83;;;-1.30;99.90;;;;;;5066582;28;20203;-86
2021/12/22 00:13:59;;;;;;;23.07;12.23;;;-1.20;99.90;;;;;;5060642;28;20212;-86
2021/12/22 00:16:24;;;;;;;13.83;11.43;;;-1.20;99.20;;;;;;5043127;28;20272;-87
2021/12/22 00:18:50;;;;;;;12.03;10.83;;;-1.20;99.90;;;;;;5047118;28;20678;-86
2021/12/22 00:21:16;;;;;;;13.57;10.67;;;-1.20;99.40;;;;;;5063649;28;20181;-85
2021/12/22 00:23:43;;;;;;;21.83;12.60;;;-1.20;98.50;;;;;;5064532;28;20191;-87
2021/12/22 00:26:10;;;;;;;60.57;14.37;;;-1.20;98.80;;;;;;5073074;28;20173;-86
2021/12/22 00:28:35;;;;;;;14.10;11.70;;;-1.30;97.20;;;;;;5065470;28;20264;-86
2021/12/22 00:31:09;;;;;;;12.73;11.10;;;-1.40;99.10;;;;;;5065740;28;20192;-86
2021/12/22 00:33:38;;;;;;;13.87;11.53;;;-1.30;99.30;;;;;;5063717;28;20188;-87
2021/12/22 00:36:04;;;;;;;14.70;11.80;;;-1.40;98.80;;;;;;5075126;28;20181;-86
2021/12/22 00:38:30;;;;;;;12.20;10.90;;;-1.30;99.20;;;;;;5050329;28;20180;-86
2021/12/22 00:40:56;;;;;;;16.83;12.27;;;-1.40;99.40;;;;;;5060722;28;20275;-86
2021/12/22 00:43:22;;;;;;;16.60;12.53;;;-1.40;99.70;;;;;;5049011;28;20196;-87
2021/12/22 00:45:55;;;;;;;16.77;12.97;;;-1.50;99.10;;;;;;5051320;28;20185;-87
2021/12/22 00:48:21;;;;;;;16.40;12.73;;;-1.50;99.90;;;;;;5051168;28;20184;-88
2021/12/22 00:50:47;;;;;;;15.00;11.87;;;-1.60;99.90;;;;;;5057075;28;20219;-88
2021/12/22 00:53:13;;;;;;;26.13;14.00;;;-1.60;99.90;;;;;;5063617;28;20180;-87
2021/12/22 00:55:38;;;;;;;16.20;12.03;;;-1.70;99.90;;;;;;5065490;28;20627;-87
2021/12/22 00:58:05;;;;;;;14.10;11.80;;;-1.60;99.90;;;;;;5056761;28;20796;-87
2021/12/22 01:00:32;;;;;;;16.57;12.07;;;-1.50;99.90;;;;;;5053567;28;20211;-86
2021/12/22 01:02:58;;;;;;;16.87;13.17;;;-1.30;99.90;;;;;;5059891;28;20177;-87
2021/12/22 01:05:24;;;;;;;16.30;13.13;;;-1.20;99.90;;;;;;5048803;28;20742;-87
2021/12/22 01:07:49;;;;;;;15.53;11.90;;;-1.20;99.60;;;;;;5040388;28;20835;-87
2021/12/22 01:10:28;;;;;;;12.77;11.47;;;-1.10;99.90;;;;;;5053353;28;20219;-88
2021/12/22 01:12:56;;;;;;;20.70;12.10;;;-1.20;99.60;;;;;;5055390;28;20188;-87
2021/12/22 01:15:23;;;;;;;56.27;14.10;;;-1.10;99.90;;;;;;5042641;28;20200;-88
2021/12/22 01:17:58;;;;;;;16.67;12.57;;;-1.70;99.90;;;;;;5061943;28;20201;-87
2021/12/22 01:20:30;;;;;;;13.53;11.37;;;-1.90;99.90;;;;;;5064711;28;20206;-87
2021/12/22 01:23:02;;;;;;;14.03;11.63;;;-1.80;99.90;;;;;;5060349;28;20211;-87
2021/12/22 01:25:35;;;;;;;17.10;12.00;;;-1.50;99.90;;;;;;5046534;28;20207;-87
2021/12/22 01:28:01;;;;;;;20.03;12.87;;;-1.30;99.90;;;;;;5057064;28;20205;-87
2021/12/22 01:30:29;;;;;;;15.43;11.20;;;-1.20;99.90;;;;;;5041904;28;20219;-89
2021/12/22 01:32:58;;;;;;;14.60;11.80;;;-1.20;99.90;;;;;;5037793;28;20196;-87
2021/12/22 01:35:27;;;;;;;19.73;12.47;;;-1.20;99.90;;;;;;5061160;28;20169;-89
2021/12/22 01:38:12;;;;;;;13.47;11.83;;;-1.10;99.90;;;;;;5058327;28;20219;-90
2021/12/22 01:40:42;;;;;;;16.50;12.20;;;-1.10;99.90;;;;;;5069195;28;20196;-88
2021/12/22 01:43:09;;;;;;;15.03;12.37;;;-1.00;99.90;;;;;;5065873;28;20183;-90
2021/12/22 01:49:11;;;;;;;16.70;13.87;;;-1.20;99.70;;;;;;5050670;28;20520;-90
2021/12/22 01:51:56;;;;;;;15.27;12.97;;;-1.30;99.90;;;;;;5068556;28;20381;-87
2021/12/22 01:54:50;;;;;;;17.17;12.13;;;-1.20;99.90;;;;;;5047233;28;20196;-87
2021/12/22 01:57:17;;;;;;;16.80;12.37;;;-1.00;99.90;;;;;;5067354;28;20196;-89
2021/12/22 01:59:46;;;;;;;16.60;13.20;;;-1.00;99.90;;;;;;5070761;28;20180;-90
2021/12/22 02:02:13;;;;;;;16.67;13.33;;;-0.90;99.90;;;;;;5053658;28;20191;-88
2021/12/22 02:04:41;;;;;;;21.67;13.27;;;-0.80;99.90;;;;;;5060612;28;20188;-87
2021/12/22 02:07:07;;;;;;;17.73;13.40;;;-0.80;99.20;;;;;;5061835;28;20212;-86
2021/12/22 02:12:03;;;;;;;17.77;12.83;;;-1.10;99.30;;;;;;5054670;28;20222;-87
2021/12/22 02:14:30;;;;;;;16.33;13.20;;;-1.10;99.70;;;;;;5060677;28;20184;-87
2021/12/22 02:16:55;;;;;;;24.47;13.00;;;-1.10;99.90;;;;;;5053551;28;20204;-86
2021/12/22 02:19:21;;;;;;;17.97;12.60;;;-1.10;99.90;;;;;;5064808;28;20219;-86
2021/12/22 02:21:52;;;;;;;21.63;13.07;;;-1.10;99.90;;;;;;5045763;28;20188;-87
2021/12/22 02:24:18;;;;;;;14.60;11.57;;;-1.10;99.90;;;;;;5047255;28;20238;-88
2021/12/22 02:26:51;;;;;;;15.30;11.87;;;-1.20;99.40;;;;;;5044748;28;20212;-86
2021/12/22 02:29:20;;;;;;;16.13;12.37;;;-1.10;99.90;;;;;;5061957;28;20204;-88
2021/12/22 02:32:05;;;;;;;15.00;12.17;;;-1.00;99.10;;;;;;5040508;28;20192;-87
2021/12/22 02:34:40;;;;;;;19.60;12.23;;;-1.00;98.80;;;;;;5057571;28;21133;-87
2021/12/22 02:37:11;;;;;;;19.37;12.23;;;-1.00;98.50;;;;;;5066631;28;20207;-86
2021/12/22 02:39:51;;;;;;;14.00;12.40;;;-1.20;97.90;;;;;;5030239;28;20193;-87
2021/12/22 02:42:20;;;;;;;17.63;12.97;;;-1.30;99.10;;;;;;5057778;28;20237;-87
2021/12/22 02:44:46;;;;;;;24.70;13.83;;;-1.40;99.30;;;;;;5065807;28;20172;-87
2021/12/22 02:47:21;;;;;;;23.83;12.87;;;-1.50;99.30;;;;;;5064464;28;20657;-87
2021/12/22 02:49:47;;;;;;;15.60;11.90;;;-1.70;99.60;;;;;;5061901;28;20214;-86
2021/12/22 02:52:13;;;;;;;29.40;12.40;;;-1.80;99.90;;;;;;5052588;28;20188;-87
2021/12/22 02:54:53;;;;;;;18.50;12.07;;;-1.70;99.90;;;;;;5035913;28;20189;-87
2021/12/22 02:57:32;;;;;;;14.33;10.83;;;-1.80;99.90;;;;;;5059828;28;20234;-87
2021/12/22 03:03:00;;;;;;;12.37;10.10;;;-1.70;99.90;;;;;;5059892;28;20314;-86
2021/12/22 03:05:28;;;;;;;26.67;11.60;;;-1.50;99.90;;;;;;5044697;28;20239;-88
2021/12/22 03:07:54;;;;;;;26.00;12.50;;;-1.70;98.00;;;;;;5048057;28;20205;-87
2021/12/22 03:10:20;;;;;;;44.83;12.60;;;-1.80;98.60;;;;;;5057132;28;20211;-88
2021/12/22 03:12:51;;;;;;;16.80;11.80;;;-2.10;99.00;;;;;;5068047;28;20197;-88
2021/12/22 03:15:17;;;;;;;16.17;11.50;;;-2.20;99.90;;;;;;5055615;28;20204;-87
2021/12/22 03:17:43;;;;;;;14.37;11.13;;;-2.10;99.90;;;;;;5046993;28;20608;-88
2021/12/22 03:20:13;;;;;;;13.57;12.10;;;-2.10;99.90;;;;;;5065608;28;20231;-87
2021/12/22 03:22:42;;;;;;;13.80;12.03;;;-1.90;99.90;;;;;;5057528;28;20252;-85
2021/12/22 03:25:14;;;;;;;15.47;12.33;;;-1.70;99.90;;;;;;5060718;28;20204;-85
2021/12/22 03:27:45;;;;;;;13.80;11.00;;;-1.80;99.00;;;;;;5060627;28;20215;-85
2021/12/22 03:30:13;;;;;;;13.77;10.77;;;-1.80;98.40;;;;;;5045673;28;20222;-87
2021/12/22 03:32:38;;;;;;;18.33;11.10;;;-1.90;97.70;;;;;;5054407;28;20326;-88
2021/12/22 03:35:05;;;;;;;12.10;10.60;;;-2.00;97.40;;;;;;5062545;28;20214;-87
2021/12/22 03:37:31;;;;;;;14.17;10.77;;;-2.10;99.50;;;;;;5068158;28;20200;-86
2021/12/22 03:39:57;;;;;;;12.80;10.83;;;-2.10;99.20;;;;;;5055733;28;20195;-86
2021/12/22 03:42:22;;;;;;;15.50;10.87;;;-2.00;98.80;;;;;;5061839;28;20188;-84
2021/12/22 03:44:48;;;;;;;12.03;10.33;;;-2.20;99.10;;;;;;5044114;28;20267;-86
2021/12/22 03:47:15;;;;;;;15.20;11.17;;;-2.10;99.90;;;;;;5042749;28;20227;-85
2021/12/22 03:49:41;;;;;;;13.07;11.40;;;-1.90;99.90;;;;;;5055208;28;20262;-85
2021/12/22 03:52:07;;;;;;;14.60;11.37;;;-1.90;98.60;;;;;;5060661;28;20252;-86
2021/12/22 03:54:33;;;;;;;28.97;11.80;;;-2.00;98.70;;;;;;5055006;28;20196;-88
2021/12/22 03:56:59;;;;;;;18.47;12.23;;;-2.10;97.10;;;;;;5075293;28;20200;-88
2021/12/22 03:59:26;;;;;;;11.73;10.17;;;-2.20;98.70;;;;;;5071461;28;20214;-85
2021/12/22 04:01:52;;;;;;;12.47;10.27;;;-2.20;99.50;;;;;;5060705;28;20318;-86
2021/12/22 04:04:19;;;;;;;11.80;10.43;;;-2.10;99.10;;;;;;5051506;28;20192;-86
2021/12/22 04:06:47;;;;;;;12.07;10.13;;;-2.10;98.60;;;;;;5057097;28;20214;-85
2021/12/22 04:09:14;;;;;;;13.83;11.23;;;-2.20;98.00;;;;;;5064171;28;20227;-85
2021/12/22 04:11:42;;;;;;;12.47;10.27;;;-2.00;98.70;;;;;;5061771;28;20207;-83
2021/12/22 04:14:08;;;;;;;25.20;11.20;;;-1.80;98.60;;;;;;5051103;28;20288;-89
2021/12/22 04:16:40;;;;;;;12.27;10.93;;;-1.80;96.80;;;;;;5038500;28;20255;-86
2021/12/22 04:19:06;;;;;;;12.93;11.27;;;-1.80;97.70;;;;;;5063767;28;20210;-86
2021/12/22 04:21:31;;;;;;;12.77;10.47;;;-1.60;97.50;;;;;;5079140;28;20216;-86
2021/12/22 04:23:57;;;;;;;14.63;11.53;;;-1.60;96.70;;;;;;5047817;28;20197;-86
2021/12/22 04:26:24;;;;;;;16.40;12.00;;;-1.50;97.10;;;;;;5041058;28;20284;-86
2021/12/22 04:28:51;;;;;;;20.63;11.13;;;-1.50;95.80;;;;;;5057112;28;20892;-86
2021/12/22 04:31:16;;;;;;;32.70;13.00;;;-1.60;94.90;;;;;;5050417;28;20207;-85
2021/12/22 04:33:42;;;;;;;15.70;11.37;;;-1.90;95.20;;;;;;5058406;28;20200;-88
2021/12/22 04:36:08;;;;;;;26.57;12.10;;;-2.10;96.40;;;;;;5050248;28;20185;-86
2021/12/22 04:38:35;;;;;;;17.73;10.80;;;-2.20;96.40;;;;;;5062251;28;20181;-88
2021/12/22 04:41:00;;;;;;;12.90;11.07;;;-2.30;97.00;;;;;;5078045;28;20211;-89
2021/12/22 04:43:26;;;;;;;16.10;11.37;;;-2.30;97.90;;;;;;5074353;28;20719;-86
2021/12/22 04:45:52;;;;;;;14.00;11.97;;;-2.30;98.00;;;;;;5052283;28;20227;-86
2021/12/22 04:48:18;;;;;;;11.67;10.03;;;-2.40;98.60;;;;;;5064816;28;20191;-88
2021/12/22 04:50:43;;;;;;;11.97;10.40;;;-2.20;98.70;;;;;;5071596;28;20240;-88
2021/12/22 04:53:22;;;;;;;13.40;10.70;;;-2.20;97.70;;;;;;5045820;28;20211;-86
2021/12/22 04:55:48;;;;;;;16.57;11.93;;;-2.20;97.10;;;;;;5053259;28;20267;-85
2021/12/22 04:58:14;;;;;;;12.93;11.27;;;-2.20;95.10;;;;;;5058211;28;20240;-85
2021/12/22 05:00:39;;;;;;;12.87;10.17;;;-2.10;96.40;;;;;;5051860;28;20521;-87
2021/12/22 05:03:06;;;;;;;11.53;10.13;;;-2.20;95.50;;;;;;5058299;28;20234;-86
2021/12/22 05:05:32;;;;;;;12.00;10.07;;;-2.20;96.40;;;;;;5060505;28;20184;-86
2021/12/22 05:08:00;;;;;;;13.40;10.63;;;-2.10;96.90;;;;;;5055401;28;20227;-86
2021/12/22 05:10:26;;;;;;;17.93;10.40;;;-2.10;96.10;;;;;;5062763;28;20254;-88
2021/12/22 05:12:53;;;;;;;15.67;10.67;;;-2.00;95.50;;;;;;5045868;28;20208;-86
2021/12/22 05:15:21;;;;;;;21.53;11.67;;;-2.20;93.20;;;;;;5047960;28;20196;-85
2021/12/22 05:20:20;;;;;;;13.70;11.40;;;-2.50;97.20;;;;;;5062974;28;20187;-85
2021/12/22 05:22:46;;;;;;;30.47;12.20;;;-2.40;97.30;;;;;;5038807;28;20193;-87
2021/12/22 05:25:12;;;;;;;15.80;12.83;;;-2.50;95.20;;;;;;5058126;28;20678;-86
2021/12/22 05:27:38;;;;;;;14.77;11.43;;;-2.60;96.60;;;;;;5064109;28;20254;-86
2021/12/22 05:30:07;;;;;;;13.70;11.13;;;-2.60;98.20;;;;;;5062447;28;20200;-86
2021/12/22 05:32:34;;;;;;;16.67;12.20;;;-2.40;97.90;;;;;;5055151;28;20211;-87
2021/12/22 05:35:01;;;;;;;13.77;12.23;;;-2.60;95.90;;;;;;5048776;28;20259;-86
2021/12/22 05:37:27;;;;;;;14.43;11.80;;;-2.50;97.20;;;;;;5062354;28;20195;-86
2021/12/22 05:39:56;;;;;;;15.53;13.17;;;-2.40;97.80;;;;;;5044908;28;20264;-86
2021/12/22 05:42:23;;;;;;;19.40;13.60;;;-2.30;97.60;;;;;;5056235;28;20203;-88
2021/12/22 05:44:49;;;;;;;17.70;14.40;;;-2.30;96.80;;;;;;5031344;28;20191;-88
2021/12/22 05:47:15;;;;;;;16.77;13.80;;;-2.30;97.10;;;;;;5061357;28;20207;-86
2021/12/22 05:49:43;;;;;;;16.73;13.63;;;-2.30;97.00;;;;;;5064559;28;20200;-87
2021/12/22 05:52:09;;;;;;;16.13;13.67;;;-2.30;96.90;;;;;;5039248;28;20749;-86
2021/12/22 05:54:35;;;;;;;20.60;13.47;;;-2.30;97.30;;;;;;5066492;28;20200;-88
2021/12/22 05:57:00;;;;;;;26.23;13.37;;;-2.30;96.50;;;;;;5062603;28;20226;-85
2021/12/22 05:59:26;;;;;;;16.07;13.47;;;-2.50;96.50;;;;;;5052338;28;20228;-86
2021/12/22 06:01:52;;;;;;;24.13;14.17;;;-2.40;98.60;;;;;;5064611;28;20196;-86
2021/12/22 06:04:18;;;;;;;20.60;13.20;;;-2.50;97.00;;;;;;5048536;28;20220;-85
2021/12/22 06:06:43;;;;;;;16.20;12.87;;;-2.60;98.80;;;;;;5060939;28;20229;-89
2021/12/22 06:09:09;;;;;;;16.37;13.50;;;-2.50;99.80;;;;;;5069534;28;20226;-88
2021/12/22 06:11:35;;;;;;;20.27;13.90;;;-2.20;99.60;;;;;;5054441;28;20216;-88
2021/12/22 06:14:01;;;;;;;15.63;13.30;;;-2.20;97.50;;;;;;5054329;28;20184;-87
2021/12/22 06:16:29;;;;;;;22.77;13.83;;;-2.20;96.80;;;;;;5039216;28;20212;-86
2021/12/22 06:19:03;;;;;;;25.67;13.23;;;-2.20;96.70;;;;;;5048789;28;20219;-85
2021/12/22 06:21:30;;;;;;;23.70;12.67;;;-2.40;95.80;;;;;;5067289;28;20703;-86
2021/12/22 06:23:56;;;;;;;30.97;17.23;;;-2.60;97.60;;;;;;5059596;28;20230;-86
2021/12/22 06:26:23;;;;;;;32.40;13.40;;;-2.50;97.60;;;;;;5046890;28;20200;-86
2021/12/22 06:28:49;;;;;;;23.13;13.20;;;-2.80;97.00;;;;;;5066419;28;20265;-86
2021/12/22 06:31:14;;;;;;;22.03;14.37;;;-2.80;98.80;;;;;;5067217;28;20196;-85
2021/12/22 06:33:40;;;;;;;14.93;12.40;;;-2.80;97.90;;;;;;5054679;28;20184;-88
2021/12/22 06:36:06;;;;;;;23.53;12.17;;;-2.70;98.30;;;;;;5057809;28;20679;-85
2021/12/22 06:38:32;;;;;;;33.30;13.10;;;-2.70;96.60;;;;;;5022920;28;20185;-86
2021/12/22 06:40:59;;;;;;;16.73;12.50;;;-2.70;96.00;;;;;;5059471;28;20325;-86
2021/12/22 06:43:25;;;;;;;13.87;12.27;;;-2.90;97.70;;;;;;5063873;28;20323;-87
2021/12/22 06:45:52;;;;;;;15.20;11.97;;;-2.70;99.30;;;;;;5059389;28;20223;-86
2021/12/22 06:48:18;;;;;;;12.53;10.87;;;-2.40;98.50;;;;;;5069627;28;20575;-86
2021/12/22 06:50:44;;;;;;;17.30;11.90;;;-2.40;97.00;;;;;;5045418;28;20205;-84
2021/12/22 06:53:09;;;;;;;15.17;12.03;;;-2.20;96.40;;;;;;5064893;28;20181;-85
2021/12/22 06:55:35;;;;;;;13.33;11.90;;;-2.20;96.10;;;;;;5061701;28;20214;-86
2021/12/22 06:58:01;;;;;;;17.77;12.20;;;-2.30;96.20;;;;;;5057763;28;20278;-85
2021/12/22 07:00:28;;;;;;;14.37;11.23;;;-2.40;96.30;;;;;;5038020;28;20271;-85
2021/12/22 07:02:56;;;;;;;28.53;13.13;;;-2.30;97.50;;;;;;5057276;28;20191;-84
2021/12/22 07:05:21;;;;;;;15.90;11.90;;;-2.50;95.20;;;;;;5057588;28;20750;-85
2021/12/22 07:07:47;;;;;;;15.70;11.97;;;-2.60;97.10;;;;;;5046478;28;20282;-86
2021/12/22 07:10:13;;;;;;;20.50;14.03;;;-2.50;97.20;;;;;;5032274;28;20242;-85
2021/12/22 07:12:41;;;;;;;15.87;13.47;;;-2.80;98.10;;;;;;5053779;28;20557;-86
2021/12/22 07:15:09;;;;;;;25.67;13.37;;;-2.80;99.50;;;;;;5045239;28;20231;-85
2021/12/22 07:17:36;;;;;;;20.00;12.63;;;-2.90;98.80;;;;;;5050007;28;20204;-86
2021/12/22 07:20:05;;;;;;;15.43;12.53;;;-3.10;99.60;;;;;;5049771;28;20586;-87
2021/12/22 07:22:32;;;;;;;49.20;14.43;;;-3.00;99.80;;;;;;5045120;28;20612;-85
2021/12/22 07:24:58;;;;;;;16.70;12.60;;;-3.20;98.70;;;;;;5037338;28;20200;-85
2021/12/22 07:27:23;;;;;;;18.07;13.57;;;-3.20;99.90;;;;;;5050241;28;20315;-85
2021/12/22 07:29:49;;;;;;;45.07;15.03;;;-3.20;99.90;;;;;;5049273;28;20215;-85
2021/12/22 07:32:15;;;;;;;20.00;14.73;;;-3.20;99.80;;;;;;5066689;28;20204;-88
2021/12/22 07:34:40;;;;;;;15.73;13.50;;;-3.50;99.90;;;;;;5067372;28;20188;-85
2021/12/22 07:37:18;;;;;;;15.17;13.50;;;-3.40;99.90;;;;;;5047172;28;20201;-86
2021/12/22 07:39:44;;;;;;;17.37;14.33;;;-3.40;99.90;;;;;;5040986;28;20185;-89
2021/12/22 07:42:10;;;;;;;17.13;13.17;;;-3.50;99.90;;;;;;5076540;28;20206;-88
2021/12/22 07:44:35;;;;;;;17.27;13.13;;;-3.20;99.90;;;;;;5056808;28;20200;-85
2021/12/22 07:47:01;;;;;;;18.10;13.83;;;-3.20;99.90;;;;;;5022207;28;20219;-85
2021/12/22 07:49:27;;;;;;;16.20;13.50;;;-3.00;99.90;;;;;;5049841;28;20282;-86
2021/12/22 07:51:53;;;;;;;20.13;14.37;;;-2.70;99.90;;;;;;5049680;28;20204;-86
2021/12/22 07:54:18;;;;;;;15.50;13.07;;;-2.50;99.70;;;;;;5051052;28;20196;-86
2021/12/22 07:56:44;;;;;;;20.83;14.30;;;-2.40;98.50;;;;;;5049090;28;20216;-86
2021/12/22 07:59:10;;;;;;;18.27;13.23;;;-2.30;97.40;;;;;;5046390;28;20224;-86
2021/12/22 08:01:36;;;;;;;16.43;13.87;;;-2.20;97.70;;;;;;5047714;28;20663;-88
2021/12/22 08:04:02;;;;;;;17.63;13.93;;;-2.00;97.10;;;;;;5051065;28;20263;-86
2021/12/22 08:06:27;;;;;;;16.43;13.53;;;-2.00;96.20;;;;;;5053604;28;20226;-86
2021/12/22 08:08:53;;;;;;;22.37;14.47;;;-2.00;96.10;;;;;;5049889;28;20208;-86
2021/12/22 08:11:19;;;;;;;16.90;13.23;;;-1.90;95.90;;;;;;5046409;28;20267;-86
2021/12/22 08:13:44;;;;;;;17.77;13.30;;;-1.90;96.60;;;;;;5035576;28;20193;-87
2021/12/22 08:16:10;;;;;;;17.47;15.13;;;-1.70;96.20;;;;;;5051428;28;20268;-85
2021/12/22 08:18:36;;;;;;;19.47;15.30;;;-1.60;95.60;;;;;;5038118;28;20749;-85
2021/12/22 08:21:02;;;;;;;18.37;15.40;;;-1.60;95.20;;;;;;5020043;28;20203;-86
2021/12/22 08:23:28;;;;;;;20.23;15.40;;;-1.80;94.40;;;;;;5051103;28;20200;-86
2021/12/22 08:25:55;;;;;;;20.47;15.43;;;-2.00;96.70;;;;;;5057042;28;20342;-85
2021/12/22 08:28:21;;;;;;;21.73;15.57;;;-1.80;96.80;;;;;;5071206;28;20256;-87
2021/12/22 08:30:47;;;;;;;21.97;17.07;;;-1.90;96.40;;;;;;5043680;28;20211;-86
2021/12/22 08:33:20;;;;;;;21.97;16.13;;;-1.90;96.40;;;;;;5072653;28;20276;-86
2021/12/22 08:38:51;;;;;;;23.57;16.80;;;-2.10;98.70;;;;;;5049842;28;20223;-86
2021/12/22 08:41:18;;;;;;;24.33;17.53;;;-2.00;98.50;;;;;;5053695;28;20199;-85
2021/12/22 08:43:43;;;;;;;27.43;19.70;;;-2.20;99.60;;;;;;5037024;28;20688;-87
2021/12/22 08:46:09;;;;;;;25.17;19.30;;;-2.10;99.60;;;;;;5057382;28;20195;-85
2021/12/22 08:48:35;;;;;;;26.63;18.27;;;-2.30;99.60;;;;;;5054653;28;20185;-85
2021/12/22 08:51:01;;;;;;;22.40;17.20;;;-2.40;99.70;;;;;;5040589;28;20671;-87
2021/12/22 08:53:26;;;;;;;24.23;17.07;;;-2.30;99.90;;;;;;5027352;28;20193;-86
2021/12/22 08:55:52;;;;;;;24.50;17.77;;;-2.10;99.90;;;;;;5032215;28;20185;-87
2021/12/22 08:58:18;;;;;;;23.97;17.13;;;-1.90;99.90;;;;;;5018195;28;20263;-86
2021/12/22 09:00:44;;;;;;;27.57;19.60;;;-1.70;99.00;;;;;;5055285;28;20614;-86
2021/12/22 09:03:10;;;;;;;39.50;28.20;;;-1.60;97.90;;;;;;5054496;28;20795;-85
2021/12/22 09:05:35;;;;;;;25.13;18.40;;;-1.80;97.50;;;;;;5035934;28;20195;-86
2021/12/22 09:08:01;;;;;;;23.50;18.60;;;-1.70;97.50;;;;;;5035165;28;20212;-87
2021/12/22 09:10:27;;;;;;;28.97;19.93;;;-1.60;97.40;;;;;;5050397;28;20283;-86
2021/12/22 09:12:53;;;;;;;22.10;17.70;;;-1.50;96.90;;;;;;5035519;28;20192;-87
2021/12/22 09:15:19;;;;;;;24.50;17.07;;;-1.40;96.80;;;;;;5036559;28;20821;-86
2021/12/22 09:17:45;;;;;;;23.47;17.37;;;-1.50;95.40;;;;;;5050740;28;20202;-86
2021/12/22 09:20:11;;;;;;;23.07;18.50;;;-1.40;95.80;;;;;;5054608;28;20247;-86
2021/12/22 09:22:37;;;;;;;23.77;17.87;;;-1.40;96.00;;;;;;5040231;28;20192;-87
2021/12/22 09:25:05;;;;;;;22.33;17.70;;;-1.50;95.90;;;;;;5054866;28;20208;-87
2021/12/22 09:27:31;;;;;;;23.90;18.47;;;-1.40;96.10;;;;;;5048147;28;20220;-86
2021/12/22 09:29:56;;;;;;;27.70;21.77;;;-1.50;96.60;;;;;;5031502;28;20212;-86
2021/12/22 09:32:22;;;;;;;25.50;17.30;;;-1.50;96.80;;;;;;5050830;28;20204;-87
2021/12/22 09:34:52;;;;;;;30.50;18.83;;;-1.40;96.30;;;;;;5045715;28;20665;-86
2021/12/22 09:37:19;;;;;;;24.83;19.43;;;-1.30;95.70;;;;;;5053506;28;20286;-86
2021/12/22 09:39:45;;;;;;;23.40;18.07;;;-1.40;95.60;;;;;;5050285;28;20251;-86
2021/12/22 09:42:11;;;;;;;29.97;20.10;;;-1.30;95.70;;;;;;5026922;28;20696;-88
2021/12/22 09:44:44;;;;;;;26.70;19.70;;;-1.20;95.30;;;;;;5053856;28;20306;-87
2021/12/22 09:47:11;;;;;;;25.47;17.90;;;-1.30;94.60;;;;;;5065863;28;20254;-86
2021/12/22 09:52:17;;;;;;;25.33;18.10;;;-1.20;94.70;;;;;;5049012;28;20172;-87
2021/12/22 09:54:44;;;;;;;23.27;18.00;;;-1.20;94.30;;;;;;5051052;28;20184;-87
2021/12/22 09:57:10;;;;;;;24.77;19.50;;;-1.40;96.50;;;;;;5032883;28;20216;-87
2021/12/22 09:59:36;;;;;;;28.23;20.10;;;-1.20;95.50;;;;;;5033232;28;20379;-86
2021/12/22 10:02:03;;;;;;;23.90;19.30;;;-1.20;94.50;;;;;;5049879;28;20200;-85
2021/12/22 10:04:29;;;;;;;24.70;18.43;;;-1.20;94.40;;;;;;5032025;28;20267;-87
2021/12/22 10:06:56;;;;;;;29.03;20.80;;;-1.20;94.10;;;;;;5031562;28;20825;-87
2021/12/22 10:09:23;;;;;;;25.83;18.63;;;-1.10;93.60;;;;;;5055132;28;20268;-86
2021/12/22 10:11:49;;;;;;;40.07;28.27;;;-1.20;94.30;;;;;;5036567;28;20280;-86
2021/12/22 10:14:23;;;;;;;26.27;19.33;;;-1.20;94.70;;;;;;5050033;28;20220;-87
2021/12/22 10:16:53;;;;;;;27.00;21.03;;;-1.10;94.80;;;;;;5048513;28;20580;-87
2021/12/22 10:19:19;;;;;;;25.93;18.67;;;-1.10;93.50;;;;;;5069101;28;20184;-88
2021/12/22 10:21:58;;;;;;;25.60;19.37;;;-1.10;94.10;;;;;;5060670;28;20185;-86
2021/12/22 10:24:33;;;;;;;27.87;19.13;;;-1.20;93.60;;;;;;5052638;28;20215;-85
2021/12/22 10:27:09;;;;;;;26.63;20.10;;;-1.10;94.90;;;;;;5058008;28;20398;-88
2021/12/22 10:29:35;;;;;;;23.40;18.27;;;-0.90;93.00;;;;;;5070999;28;20199;-86
2021/12/22 10:32:13;;;;;;;24.43;19.23;;;-0.80;92.80;;;;;;5064089;28;20220;-86
2021/12/22 10:35:03;;;;;;;26.60;18.83;;;-0.90;93.10;;;;;;5041214;28;20196;-86
2021/12/22 10:37:42;;;;;;;23.03;17.97;;;-0.70;93.50;;;;;;5052976;28;20876;-87
2021/12/22 10:40:25;;;;;;;23.77;17.97;;;-0.70;93.00;;;;;;5040573;28;20203;-86
2021/12/22 10:42:52;;;;;;;24.70;18.90;;;-0.70;93.00;;;;;;5069834;28;20241;-87
2021/12/22 10:45:19;;;;;;;24.90;17.73;;;-0.60;92.00;;;;;;5063263;28;20306;-87
2021/12/22 10:50:43;;;;;;;25.53;18.53;;;-0.90;94.00;;;;;;5064441;28;20239;-87
2021/12/22 10:53:11;;;;;;;23.93;19.03;;;-0.90;94.40;;;;;;5044277;28;20222;-86
2021/12/22 10:55:41;;;;;;;28.40;20.97;;;-0.80;93.30;;;;;;5059197;28;20243;-86
2021/12/22 10:58:25;;;;;;;24.43;18.60;;;-0.90;92.40;;;;;;5042019;28;20212;-87
2021/12/22 11:01:07;;;;;;;36.23;20.37;;;-0.90;94.00;;;;;;5053653;28;20247;-86
2021/12/22 11:04:02;;;;;;;27.90;19.73;;;-0.70;92.70;;;;;;5057058;28;20218;-87
2021/12/22 11:06:30;;;;;;;24.60;19.23;;;-0.90;92.50;;;;;;5055306;28;20691;-86
2021/12/22 11:09:03;;;;;;;23.87;19.03;;;-0.90;91.80;;;;;;5054043;28;20244;-87
2021/12/22 11:11:32;;;;;;;28.50;21.23;;;-1.00;92.50;;;;;;5052986;28;20604;-86
2021/12/22 11:14:07;;;;;;;25.60;21.63;;;-1.20;94.60;;;;;;5039611;28;20283;-87
2021/12/22 11:16:48;;;;;;;23.77;20.17;;;-1.00;93.70;;;;;;5054909;28;20200;-86
2021/12/22 11:19:14;;;;;;;26.83;19.37;;;-1.10;93.20;;;;;;5050122;28;20200;-84
2021/12/22 11:21:58;;;;;;;25.13;19.97;;;-0.90;93.70;;;;;;5052540;28;20203;-85
2021/12/22 11:24:24;;;;;;;27.03;19.30;;;-0.80;92.50;;;;;;5044543;28;20272;-85
2021/12/22 11:26:51;;;;;;;26.53;19.83;;;-0.90;93.90;;;;;;5050161;28;20215;-85
2021/12/22 11:29:20;;;;;;;24.10;18.47;;;-0.90;94.40;;;;;;5036882;28;20204;-85
2021/12/22 11:31:47;;;;;;;28.40;20.40;;;-0.70;93.60;;;;;;5039074;28;20271;-86
2021/12/22 11:34:16;;;;;;;29.23;21.07;;;-0.60;92.80;;;;;;5047815;28;20204;-85
2021/12/22 11:36:44;;;;;;;25.53;20.40;;;-0.60;92.00;;;;;;5038431;28;20295;-85
2021/12/22 11:39:10;;;;;;;21.97;17.97;;;-0.60;92.10;;;;;;5041014;28;20212;-85
2021/12/22 11:41:43;;;;;;;51.00;39.93;;;-0.50;93.30;;;;;;5058800;28;20687;-86
2021/12/22 11:44:13;;;;;;;99.37;73.67;;;-0.50;91.70;;;;;;5054821;28;20228;-85
2021/12/22 11:46:40;;;;;;;27.70;20.50;;;-0.50;91.70;;;;;;5037936;28;20223;-86
2021/12/22 11:49:06;;;;;;;26.80;19.77;;;-0.60;91.40;;;;;;5050262;28;20280;-86
2021/12/22 11:51:34;;;;;;;27.30;21.07;;;-0.70;92.10;;;;;;5062818;28;20250;-86
2021/12/22 11:54:07;;;;;;;26.53;19.20;;;-0.70;92.70;;;;;;5038436;28;20219;-86
2021/12/22 11:56:47;;;;;;;28.00;22.30;;;-0.60;92.80;;;;;;5056414;28;20223;-86
2021/12/22 11:59:29;;;;;;;28.97;21.03;;;-0.50;92.40;;;;;;5061212;28;20191;-86
2021/12/22 12:02:40;;;;;;;27.83;19.50;;;-0.60;92.40;;;;;;5026653;28;20207;-85
2021/12/22 12:05:16;;;;;;;33.27;25.67;;;-0.70;92.00;;;;;;5053251;28;20262;-85
2021/12/22 12:07:51;;;;;;;81.33;59.33;;;-0.60;92.90;;;;;;5060220;28;20250;-86
2021/12/22 12:10:35;;;;;;;433.17;309.80;;;-0.60;93.00;;;;;;5059897;28;20211;-86
2021/12/22 12:13:22;;;;;;;38.80;30.40;;;-0.60;92.70;;;;;;5061874;28;20191;-85
2021/12/22 12:21:59;;;;;;;27.97;20.73;;;-0.70;94.30;;;;;;5056239;28;20216;-85
2021/12/22 12:24:31;;;;;;;32.23;27.73;;;-0.60;92.30;;;;;;5056183;28;20234;-85
2021/12/22 12:26:58;;;;;;;32.07;25.30;;;-0.50;91.80;;;;;;5059684;28;20286;-86
2021/12/22 12:29:55;;;;;;;28.40;21.60;;;-0.30;91.80;;;;;;5053880;28;20696;-86
2021/12/22 12:32:39;;;;;;;27.37;21.70;;;-0.20;91.10;;;;;;5057778;28;20193;-86
2021/12/22 12:35:20;;;;;;;28.80;20.13;;;-0.20;90.50;;;;;;5049063;28;20191;-86
2021/12/22 12:38:16;;;;;;;28.07;20.13;;;-0.40;91.40;;;;;;5057595;28;20196;-85
2021/12/22 12:40:57;;;;;;;27.07;21.57;;;-0.40;92.20;;;;;;5061164;28;20211;-85
2021/12/22 12:43:44;;;;;;;30.73;23.87;;;-0.30;91.80;;;;;;5057867;28;20203;-85
2021/12/22 12:46:27;;;;;;;26.53;21.87;;;-0.30;91.40;;;;;;5042528;28;20196;-85
2021/12/22 12:51:42;;;;;;;26.07;20.13;;;-0.30;91.10;;;;;;5060631;28;20186;-85
2021/12/22 12:54:17;;;;;;;30.57;22.77;;;-0.30;90.80;;;;;;5058701;28;20183;-85
2021/12/22 12:56:49;;;;;;;25.87;21.03;;;-0.20;89.50;;;;;;5070752;28;20314;-85
2021/12/22 12:59:17;;;;;;;26.37;20.30;;;-0.20;89.10;;;;;;5066301;28;20187;-86
2021/12/22 13:01:47;;;;;;;25.00;19.97;;;-0.20;88.60;;;;;;5076311;28;20203;-86
2021/12/22 13:04:36;;;;;;;23.27;19.90;;;-0.20;89.70;;;;;;5066405;28;20204;-86